sensor_id;sensor_type;location;lat;lon;timestamp;P1;P2;P0
70915;PMS5003;58557;50.982;-3.222;2022-12-18T00:01:21;92;86;
70915;PMS5003;58557;50.982;-3.222;2022-12-18T00:03:45;89;82;
70915;PMS5003;58557;50.982;-3.222;2022-12-18T00:06:11;93;75;
70915;PMS5003;58557;50.982;-3.222;2022-12-18T00:08:36;92;78;
70915;PMS5003;58557;50.982;-3.222;2022-12-18T00:11:03;96;83;
70915;PMS5003;58557;50.982;-3.222;2022-12-18T00:13:27;95;80;
70915;PMS5003;58557;50.982;-3.222;2022-12-18T00:15:53;111;104;
70915;PMS5003;58557;50.982;-3.222;2022-12-18T00:18:18;120;100;
70915;PMS5003;58557;50.982;-3.222;2022-12-18T00:20:44;130;114;
70915;PMS5003;58557;50.982;-3.222;2022-12-18T00:23:09;131;110;
70915;PMS5003;58557;50.982;-3.222;2022-12-18T00:25:35;116;104;
70915;PMS5003;58557;50.982;-3.222;2022-12-18T00:28:00;119;98;
70915;PMS5003;58557;50.982;-3.222;2022-12-18T00:30:25;101;90;
70915;PMS5003;58557;50.982;-3.222;2022-12-18T00:32:51;122;107;
70915;PMS5003;58557;50.982;-3.222;2022-12-18T00:35:16;126;107;
70915;PMS5003;58557;50.982;-3.222;2022-12-18T00:37:42;130;111;
70915;PMS5003;58557;50.982;-3.222;2022-12-18T00:40:08;124;110;
70915;PMS5003;58557;50.982;-3.222;2022-12-18T00:42:33;119;101;
70915;PMS5003;58557;50.982;-3.222;2022-12-18T00:44:59;109;102;
70915;PMS5003;58557;50.982;-3.222;2022-12-18T00:47:24;101;94;
70915;PMS5003;58557;50.982;-3.222;2022-12-18T00:49:50;102;88;
70915;PMS5003;58557;50.982;-3.222;2022-12-18T00:52:15;104;89;
70915;PMS5003;58557;50.982;-3.222;2022-12-18T00:54:41;95;85;
70915;PMS5003;58557;50.982;-3.222;2022-12-18T00:57:06;114;92;
70915;PMS5003;58557;50.982;-3.222;2022-12-18T00:59:32;104;88;
70915;PMS5003;58557;50.982;-3.222;2022-12-18T01:01:57;103;90;
70915;PMS5003;58557;50.982;-3.222;2022-12-18T01:04:23;98;91;
70915;PMS5003;58557;50.982;-3.222;2022-12-18T01:06:48;101;97;
70915;PMS5003;58557;50.982;-3.222;2022-12-18T01:09:14;100;93;
70915;PMS5003;58557;50.982;-3.222;2022-12-18T01:11:39;108;97;
70915;PMS5003;58557;50.982;-3.222;2022-12-18T01:14:04;107;90;
70915;PMS5003;58557;50.982;-3.222;2022-12-18T01:16:30;85;78;
70915;PMS5003;58557;50.982;-3.222;2022-12-18T01:18:55;87;77;
70915;PMS5003;58557;50.982;-3.222;2022-12-18T01:21:21;90;80;
70915;PMS5003;58557;50.982;-3.222;2022-12-18T01:23:45;96;87;
70915;PMS5003;58557;50.982;-3.222;2022-12-18T01:26:12;118;93;
70915;PMS5003;58557;50.982;-3.222;2022-12-18T01:28:36;122;106;
70915;PMS5003;58557;50.982;-3.222;2022-12-18T01:31:10;100;87;
70915;PMS5003;58557;50.982;-3.222;2022-12-18T01:33:27;97;90;
70915;PMS5003;58557;50.982;-3.222;2022-12-18T01:35:52;99;87;
70915;PMS5003;58557;50.982;-3.222;2022-12-18T01:38:17;96;76;
70915;PMS5003;58557;50.982;-3.222;2022-12-18T01:40:43;96;83;
70915;PMS5003;58557;50.982;-3.222;2022-12-18T01:43:08;81;72;
70915;PMS5003;58557;50.982;-3.222;2022-12-18T01:45:34;81;74;
70915;PMS5003;58557;50.982;-3.222;2022-12-18T01:48:01;84;68;
70915;PMS5003;58557;50.982;-3.222;2022-12-18T01:50:27;88;71;
70915;PMS5003;58557;50.982;-3.222;2022-12-18T01:52:51;80;72;
70915;PMS5003;58557;50.982;-3.222;2022-12-18T01:55:17;85;78;
70915;PMS5003;58557;50.982;-3.222;2022-12-18T01:57:41;90;74;
70915;PMS5003;58557;50.982;-3.222;2022-12-18T02:00:09;82;75;
70915;PMS5003;58557;50.982;-3.222;2022-12-18T02:02:32;81;77;
70915;PMS5003;58557;50.982;-3.222;2022-12-18T02:04:57;85;79;
70915;PMS5003;58557;50.982;-3.222;2022-12-18T02:07:24;79;73;
70915;PMS5003;58557;50.982;-3.222;2022-12-18T02:09:49;78;69;
70915;PMS5003;58557;50.982;-3.222;2022-12-18T02:12:16;91;79;
70915;PMS5003;58557;50.982;-3.222;2022-12-18T02:14:40;88;75;
70915;PMS5003;58557;50.982;-3.222;2022-12-18T02:17:06;77;66;
70915;PMS5003;58557;50.982;-3.222;2022-12-18T02:19:39;106;83;
70915;PMS5003;58557;50.982;-3.222;2022-12-18T02:21:57;80;69;
70915;PMS5003;58557;50.982;-3.222;2022-12-18T02:24:26;87;76;
70915;PMS5003;58557;50.982;-3.222;2022-12-18T02:26:47;83;73;
70915;PMS5003;58557;50.982;-3.222;2022-12-18T02:29:13;85;70;
70915;PMS5003;58557;50.982;-3.222;2022-12-18T02:31:38;76;71;
70915;PMS5003;58557;50.982;-3.222;2022-12-18T02:34:04;76;64;
70915;PMS5003;58557;50.982;-3.222;2022-12-18T02:36:28;94;78;
70915;PMS5003;58557;50.982;-3.222;2022-12-18T02:38:54;71;71;
70915;PMS5003;58557;50.982;-3.222;2022-12-18T02:41:20;84;77;
70915;PMS5003;58557;50.982;-3.222;2022-12-18T02:43:46;105;79;
70915;PMS5003;58557;50.982;-3.222;2022-12-18T02:48:36;82;71;
70915;PMS5003;58557;50.982;-3.222;2022-12-18T02:51:03;88;71;
70915;PMS5003;58557;50.982;-3.222;2022-12-18T02:53:28;86;74;
70915;PMS5003;58557;50.982;-3.222;2022-12-18T02:55:54;92;76;
70915;PMS5003;58557;50.982;-3.222;2022-12-18T02:58:18;83;72;
70915;PMS5003;58557;50.982;-3.222;2022-12-18T03:00:43;79;76;
70915;PMS5003;58557;50.982;-3.222;2022-12-18T03:03:09;82;70;
70915;PMS5003;58557;50.982;-3.222;2022-12-18T03:05:34;69;63;
70915;PMS5003;58557;50.982;-3.222;2022-12-18T03:07:59;84;70;
70915;PMS5003;58557;50.982;-3.222;2022-12-18T03:10:25;71;65;
70915;PMS5003;58557;50.982;-3.222;2022-12-18T03:12:51;62;58;
70915;PMS5003;58557;50.982;-3.222;2022-12-18T03:15:16;65;62;
70915;PMS5003;58557;50.982;-3.222;2022-12-18T03:17:40;66;61;
70915;PMS5003;58557;50.982;-3.222;2022-12-18T03:20:07;74;65;
70915;PMS5003;58557;50.982;-3.222;2022-12-18T03:22:32;70;62;
70915;PMS5003;58557;50.982;-3.222;2022-12-18T03:24:56;69;63;
70915;PMS5003;58557;50.982;-3.222;2022-12-18T03:27:21;80;62;
70915;PMS5003;58557;50.982;-3.222;2022-12-18T03:29:48;75;68;
70915;PMS5003;58557;50.982;-3.222;2022-12-18T03:32:14;75;62;
70915;PMS5003;58557;50.982;-3.222;2022-12-18T03:34:38;81;72;
70915;PMS5003;58557;50.982;-3.222;2022-12-18T03:37:02;69;64;
70915;PMS5003;58557;50.982;-3.222;2022-12-18T03:39:28;65;65;
70915;PMS5003;58557;50.982;-3.222;2022-12-18T03:41:55;71;64;
70915;PMS5003;58557;50.982;-3.222;2022-12-18T03:44:20;72;58;
70915;PMS5003;58557;50.982;-3.222;2022-12-18T03:46:46;82;66;
70915;PMS5003;58557;50.982;-3.222;2022-12-18T03:49:11;71;62;
70915;PMS5003;58557;50.982;-3.222;2022-12-18T03:51:37;72;56;
70915;PMS5003;58557;50.982;-3.222;2022-12-18T03:54:02;79;71;
70915;PMS5003;58557;50.982;-3.222;2022-12-18T03:56:28;91;73;
70915;PMS5003;58557;50.982;-3.222;2022-12-18T03:58:52;56;52;
70915;PMS5003;58557;50.982;-3.222;2022-12-18T04:01:17;62;51;
70915;PMS5003;58557;50.982;-3.222;2022-12-18T04:03:43;55;54;
70915;PMS5003;58557;50.982;-3.222;2022-12-18T04:06:08;73;58;
70915;PMS5003;58557;50.982;-3.222;2022-12-18T04:08:34;60;46;
70915;PMS5003;58557;50.982;-3.222;2022-12-18T04:10:59;54;46;
70915;PMS5003;58557;50.982;-3.222;2022-12-18T04:13:27;49;49;
70915;PMS5003;58557;50.982;-3.222;2022-12-18T04:15:50;56;51;
70915;PMS5003;58557;50.982;-3.222;2022-12-18T04:18:16;71;58;
70915;PMS5003;58557;50.982;-3.222;2022-12-18T04:20:41;53;46;
70915;PMS5003;58557;50.982;-3.222;2022-12-18T04:23:06;63;50;
70915;PMS5003;58557;50.982;-3.222;2022-12-18T04:25:32;67;53;
70915;PMS5003;58557;50.982;-3.222;2022-12-18T04:27:57;61;47;
70915;PMS5003;58557;50.982;-3.222;2022-12-18T04:30:22;53;45;
70915;PMS5003;58557;50.982;-3.222;2022-12-18T04:32:48;47;47;
70915;PMS5003;58557;50.982;-3.222;2022-12-18T04:35:13;54;49;
70915;PMS5003;58557;50.982;-3.222;2022-12-18T04:37:39;49;39;
70915;PMS5003;58557;50.982;-3.222;2022-12-18T04:40:05;57;50;
70915;PMS5003;58557;50.982;-3.222;2022-12-18T04:42:30;61;53;
70915;PMS5003;58557;50.982;-3.222;2022-12-18T04:44:55;61;49;
70915;PMS5003;58557;50.982;-3.222;2022-12-18T04:47:20;45;39;
70915;PMS5003;58557;50.982;-3.222;2022-12-18T04:49:45;54;49;
70915;PMS5003;58557;50.982;-3.222;2022-12-18T04:52:11;57;53;
70915;PMS5003;58557;50.982;-3.222;2022-12-18T04:54:37;46;39;
70915;PMS5003;58557;50.982;-3.222;2022-12-18T04:57:02;40;37;
70915;PMS5003;58557;50.982;-3.222;2022-12-18T04:59:28;44;40;
70915;PMS5003;58557;50.982;-3.222;2022-12-18T05:01:53;40;37;
70915;PMS5003;58557;50.982;-3.222;2022-12-18T05:04:19;38;36;
70915;PMS5003;58557;50.982;-3.222;2022-12-18T05:06:44;41;34;
70915;PMS5003;58557;50.982;-3.222;2022-12-18T05:09:10;42;34;
70915;PMS5003;58557;50.982;-3.222;2022-12-18T05:11:35;41;34;
70915;PMS5003;58557;50.982;-3.222;2022-12-18T05:14:00;34;33;
70915;PMS5003;58557;50.982;-3.222;2022-12-18T05:16:26;37;36;
70915;PMS5003;58557;50.982;-3.222;2022-12-18T05:18:52;34;27;
70915;PMS5003;58557;50.982;-3.222;2022-12-18T05:21:17;37;29;
70915;PMS5003;58557;50.982;-3.222;2022-12-18T05:23:43;31;29;
70915;PMS5003;58557;50.982;-3.222;2022-12-18T05:26:08;37;29;
70915;PMS5003;58557;50.982;-3.222;2022-12-18T05:28:34;33;31;
70915;PMS5003;58557;50.982;-3.222;2022-12-18T05:31:00;37;31;
70915;PMS5003;58557;50.982;-3.222;2022-12-18T05:33:25;36;31;
70915;PMS5003;58557;50.982;-3.222;2022-12-18T05:35:50;28;23;
70915;PMS5003;58557;50.982;-3.222;2022-12-18T05:38:15;35;28;
70915;PMS5003;58557;50.982;-3.222;2022-12-18T05:40:41;39;35;
70915;PMS5003;58557;50.982;-3.222;2022-12-18T05:43:06;40;35;
70915;PMS5003;58557;50.982;-3.222;2022-12-18T05:45:31;36;35;
70915;PMS5003;58557;50.982;-3.222;2022-12-18T05:47:57;39;33;
70915;PMS5003;58557;50.982;-3.222;2022-12-18T05:50:23;44;36;
70915;PMS5003;58557;50.982;-3.222;2022-12-18T05:52:48;45;41;
70915;PMS5003;58557;50.982;-3.222;2022-12-18T05:55:13;33;32;
70915;PMS5003;58557;50.982;-3.222;2022-12-18T05:57:38;42;40;
70915;PMS5003;58557;50.982;-3.222;2022-12-18T06:00:05;51;42;
70915;PMS5003;58557;50.982;-3.222;2022-12-18T06:02:30;55;48;
70915;PMS5003;58557;50.982;-3.222;2022-12-18T06:04:55;39;39;
70915;PMS5003;58557;50.982;-3.222;2022-12-18T06:07:20;48;41;
70915;PMS5003;58557;50.982;-3.222;2022-12-18T06:09:46;47;37;
70915;PMS5003;58557;50.982;-3.222;2022-12-18T06:12:11;52;49;
70915;PMS5003;58557;50.982;-3.222;2022-12-18T06:14:36;40;38;
70915;PMS5003;58557;50.982;-3.222;2022-12-18T06:17:02;58;47;
70915;PMS5003;58557;50.982;-3.222;2022-12-18T06:19:27;47;39;
70915;PMS5003;58557;50.982;-3.222;2022-12-18T06:21:52;51;42;
70915;PMS5003;58557;50.982;-3.222;2022-12-18T06:24:18;68;51;
70915;PMS5003;58557;50.982;-3.222;2022-12-18T06:26:43;49;43;
70915;PMS5003;58557;50.982;-3.222;2022-12-18T06:29:09;48;47;
70915;PMS5003;58557;50.982;-3.222;2022-12-18T06:31:34;43;42;
70915;PMS5003;58557;50.982;-3.222;2022-12-18T06:34:01;52;47;
70915;PMS5003;58557;50.982;-3.222;2022-12-18T06:36:25;62;54;
70915;PMS5003;58557;50.982;-3.222;2022-12-18T06:38:50;58;44;
70915;PMS5003;58557;50.982;-3.222;2022-12-18T06:41:16;59;49;
70915;PMS5003;58557;50.982;-3.222;2022-12-18T06:43:41;50;45;
70915;PMS5003;58557;50.982;-3.222;2022-12-18T06:46:07;51;45;
70915;PMS5003;58557;50.982;-3.222;2022-12-18T06:48:32;52;43;
70915;PMS5003;58557;50.982;-3.222;2022-12-18T06:50:57;51;39;
70915;PMS5003;58557;50.982;-3.222;2022-12-18T06:53:22;56;48;
70915;PMS5003;58557;50.982;-3.222;2022-12-18T06:55:48;70;54;
70915;PMS5003;58557;50.982;-3.222;2022-12-18T06:58:14;54;51;
70915;PMS5003;58557;50.982;-3.222;2022-12-18T07:00:39;52;44;
70915;PMS5003;58557;50.982;-3.222;2022-12-18T07:03:04;45;40;
70915;PMS5003;58557;50.982;-3.222;2022-12-18T07:05:30;60;49;
70915;PMS5003;58557;50.982;-3.222;2022-12-18T07:07:55;61;52;
70915;PMS5003;58557;50.982;-3.222;2022-12-18T07:10:20;57;51;
70915;PMS5003;58557;50.982;-3.222;2022-12-18T07:12:46;62;52;
70915;PMS5003;58557;50.982;-3.222;2022-12-18T07:15:11;62;50;
70915;PMS5003;58557;50.982;-3.222;2022-12-18T07:17:37;52;47;
70915;PMS5003;58557;50.982;-3.222;2022-12-18T07:20:02;62;48;
70915;PMS5003;58557;50.982;-3.222;2022-12-18T07:22:28;56;50;
70915;PMS5003;58557;50.982;-3.222;2022-12-18T07:24:53;48;45;
70915;PMS5003;58557;50.982;-3.222;2022-12-18T07:27:19;61;57;
70915;PMS5003;58557;50.982;-3.222;2022-12-18T07:29:45;48;43;
70915;PMS5003;58557;50.982;-3.222;2022-12-18T07:32:10;47;40;
70915;PMS5003;58557;50.982;-3.222;2022-12-18T07:34:35;47;43;
70915;PMS5003;58557;50.982;-3.222;2022-12-18T07:37:01;53;47;
70915;PMS5003;58557;50.982;-3.222;2022-12-18T07:39:26;53;45;
70915;PMS5003;58557;50.982;-3.222;2022-12-18T07:41:52;58;51;
70915;PMS5003;58557;50.982;-3.222;2022-12-18T07:44:18;55;47;
70915;PMS5003;58557;50.982;-3.222;2022-12-18T07:46:43;60;54;
70915;PMS5003;58557;50.982;-3.222;2022-12-18T07:49:09;47;42;
70915;PMS5003;58557;50.982;-3.222;2022-12-18T07:51:33;48;40;
70915;PMS5003;58557;50.982;-3.222;2022-12-18T07:53:59;54;50;
70915;PMS5003;58557;50.982;-3.222;2022-12-18T07:56:24;54;47;
70915;PMS5003;58557;50.982;-3.222;2022-12-18T07:58:49;60;51;
70915;PMS5003;58557;50.982;-3.222;2022-12-18T08:01:15;59;52;
70915;PMS5003;58557;50.982;-3.222;2022-12-18T08:03:40;64;51;
70915;PMS5003;58557;50.982;-3.222;2022-12-18T08:06:07;59;53;
70915;PMS5003;58557;50.982;-3.222;2022-12-18T08:08:31;60;51;
70915;PMS5003;58557;50.982;-3.222;2022-12-18T08:10:57;61;50;
70915;PMS5003;58557;50.982;-3.222;2022-12-18T08:13:23;69;57;
70915;PMS5003;58557;50.982;-3.222;2022-12-18T08:18:13;64;59;
70915;PMS5003;58557;50.982;-3.222;2022-12-18T08:20:38;53;48;
70915;PMS5003;58557;50.982;-3.222;2022-12-18T08:23:04;64;62;
70915;PMS5003;58557;50.982;-3.222;2022-12-18T08:25:30;59;51;
70915;PMS5003;58557;50.982;-3.222;2022-12-18T08:27:56;50;47;
70915;PMS5003;58557;50.982;-3.222;2022-12-18T08:30:21;54;50;
70915;PMS5003;58557;50.982;-3.222;2022-12-18T08:32:46;54;48;
70915;PMS5003;58557;50.982;-3.222;2022-12-18T08:35:12;48;44;
70915;PMS5003;58557;50.982;-3.222;2022-12-18T08:37:37;51;44;
70915;PMS5003;58557;50.982;-3.222;2022-12-18T08:40:03;49;42;
70915;PMS5003;58557;50.982;-3.222;2022-12-18T08:42:28;58;49;
70915;PMS5003;58557;50.982;-3.222;2022-12-18T08:44:54;64;57;
70915;PMS5003;58557;50.982;-3.222;2022-12-18T08:47:20;63;56;
70915;PMS5003;58557;50.982;-3.222;2022-12-18T08:49:45;72;58;
70915;PMS5003;58557;50.982;-3.222;2022-12-18T08:52:10;59;54;
70915;PMS5003;58557;50.982;-3.222;2022-12-18T08:54:36;68;66;
70915;PMS5003;58557;50.982;-3.222;2022-12-18T08:57:01;68;60;
70915;PMS5003;58557;50.982;-3.222;2022-12-18T08:59:26;65;53;
70915;PMS5003;58557;50.982;-3.222;2022-12-18T09:01:53;65;54;
70915;PMS5003;58557;50.982;-3.222;2022-12-18T09:04:18;69;61;
70915;PMS5003;58557;50.982;-3.222;2022-12-18T09:06:43;52;47;
70915;PMS5003;58557;50.982;-3.222;2022-12-18T09:09:09;57;47;
70915;PMS5003;58557;50.982;-3.222;2022-12-18T09:11:34;61;51;
70915;PMS5003;58557;50.982;-3.222;2022-12-18T09:14:00;71;62;
70915;PMS5003;58557;50.982;-3.222;2022-12-18T09:16:25;73;57;
70915;PMS5003;58557;50.982;-3.222;2022-12-18T09:18:51;61;53;
70915;PMS5003;58557;50.982;-3.222;2022-12-18T09:21:16;72;68;
70915;PMS5003;58557;50.982;-3.222;2022-12-18T09:23:42;62;60;
70915;PMS5003;58557;50.982;-3.222;2022-12-18T09:26:07;53;48;
70915;PMS5003;58557;50.982;-3.222;2022-12-18T09:28:32;48;45;
70915;PMS5003;58557;50.982;-3.222;2022-12-18T09:30:58;44;40;
70915;PMS5003;58557;50.982;-3.222;2022-12-18T09:33:23;68;56;
70915;PMS5003;58557;50.982;-3.222;2022-12-18T09:35:49;61;53;
70915;PMS5003;58557;50.982;-3.222;2022-12-18T09:38:16;53;41;
70915;PMS5003;58557;50.982;-3.222;2022-12-18T09:40:41;44;40;
70915;PMS5003;58557;50.982;-3.222;2022-12-18T09:43:05;40;35;
70915;PMS5003;58557;50.982;-3.222;2022-12-18T09:45:30;40;36;
70915;PMS5003;58557;50.982;-3.222;2022-12-18T09:47:56;32;32;
70915;PMS5003;58557;50.982;-3.222;2022-12-18T09:50:24;55;48;
70915;PMS5003;58557;50.982;-3.222;2022-12-18T09:52:49;64;52;
70915;PMS5003;58557;50.982;-3.222;2022-12-18T09:55:19;66;61;
70915;PMS5003;58557;50.982;-3.222;2022-12-18T09:57:39;66;56;
70915;PMS5003;58557;50.982;-3.222;2022-12-18T10:00:06;74;65;
70915;PMS5003;58557;50.982;-3.222;2022-12-18T10:02:30;72;63;
70915;PMS5003;58557;50.982;-3.222;2022-12-18T10:05:01;59;51;
70915;PMS5003;58557;50.982;-3.222;2022-12-18T10:07:22;68;64;
70915;PMS5003;58557;50.982;-3.222;2022-12-18T10:09:49;78;62;
70915;PMS5003;58557;50.982;-3.222;2022-12-18T10:12:13;55;47;
70915;PMS5003;58557;50.982;-3.222;2022-12-18T10:14:41;66;55;
70915;PMS5003;58557;50.982;-3.222;2022-12-18T10:17:05;69;55;
70915;PMS5003;58557;50.982;-3.222;2022-12-18T10:19:34;69;61;
70915;PMS5003;58557;50.982;-3.222;2022-12-18T10:21:56;60;51;
70915;PMS5003;58557;50.982;-3.222;2022-12-18T10:24:23;76;64;
70915;PMS5003;58557;50.982;-3.222;2022-12-18T10:26:45;78;64;
70915;PMS5003;58557;50.982;-3.222;2022-12-18T10:29:12;64;55;
70915;PMS5003;58557;50.982;-3.222;2022-12-18T10:31:37;66;56;
70915;PMS5003;58557;50.982;-3.222;2022-12-18T10:34:02;56;47;
70915;PMS5003;58557;50.982;-3.222;2022-12-18T10:36:27;53;49;
70915;PMS5003;58557;50.982;-3.222;2022-12-18T10:38:52;25;23;
70915;PMS5003;58557;50.982;-3.222;2022-12-18T10:41:25;26;22;
70915;PMS5003;58557;50.982;-3.222;2022-12-18T10:43:44;25;21;
70915;PMS5003;58557;50.982;-3.222;2022-12-18T10:46:12;24;22;
70915;PMS5003;58557;50.982;-3.222;2022-12-18T10:48:40;29;26;
70915;PMS5003;58557;50.982;-3.222;2022-12-18T10:51:00;12;12;
70915;PMS5003;58557;50.982;-3.222;2022-12-18T10:53:27;21;20;
70915;PMS5003;58557;50.982;-3.222;2022-12-18T10:55:52;18;15;
70915;PMS5003;58557;50.982;-3.222;2022-12-18T10:58:20;12;10;
70915;PMS5003;58557;50.982;-3.222;2022-12-18T11:00:43;18;18;
70915;PMS5003;58557;50.982;-3.222;2022-12-18T11:05:34;14;13;
70915;PMS5003;58557;50.982;-3.222;2022-12-18T11:08:00;11;9;
70915;PMS5003;58557;50.982;-3.222;2022-12-18T11:10:27;12;9;
70915;PMS5003;58557;50.982;-3.222;2022-12-18T11:12:51;9;9;
70915;PMS5003;58557;50.982;-3.222;2022-12-18T11:15:17;4;4;
70915;PMS5003;58557;50.982;-3.222;2022-12-18T11:17:42;7;5;
70915;PMS5003;58557;50.982;-3.222;2022-12-18T11:22:34;9;9;
70915;PMS5003;58557;50.982;-3.222;2022-12-18T11:25:00;7;5;
70915;PMS5003;58557;50.982;-3.222;2022-12-18T11:27:25;4;4;
70915;PMS5003;58557;50.982;-3.222;2022-12-18T11:29:51;5;5;
70915;PMS5003;58557;50.982;-3.222;2022-12-18T11:32:21;4;4;
70915;PMS5003;58557;50.982;-3.222;2022-12-18T11:34:42;4;4;
70915;PMS5003;58557;50.982;-3.222;2022-12-18T11:37:07;5;5;
70915;PMS5003;58557;50.982;-3.222;2022-12-18T11:39:34;8;7;
70915;PMS5003;58557;50.982;-3.222;2022-12-18T11:41:58;4;3;
70915;PMS5003;58557;50.982;-3.222;2022-12-18T11:44:25;4;4;
70915;PMS5003;58557;50.982;-3.222;2022-12-18T11:46:50;5;5;
70915;PMS5003;58557;50.982;-3.222;2022-12-18T11:49:17;5;4;
70915;PMS5003;58557;50.982;-3.222;2022-12-18T11:51:41;3;3;
70915;PMS5003;58557;50.982;-3.222;2022-12-18T11:54:08;4;4;
70915;PMS5003;58557;50.982;-3.222;2022-12-18T11:56:31;3;3;
70915;PMS5003;58557;50.982;-3.222;2022-12-18T11:58:58;5;4;
70915;PMS5003;58557;50.982;-3.222;2022-12-18T12:01:25;3;3;
70915;PMS5003;58557;50.982;-3.222;2022-12-18T12:03:53;2;2;
70915;PMS5003;58557;50.982;-3.222;2022-12-18T12:06:13;3;3;
70915;PMS5003;58557;50.982;-3.222;2022-12-18T12:08:41;3;3;
70915;PMS5003;58557;50.982;-3.222;2022-12-18T12:11:05;7;4;
70915;PMS5003;58557;50.982;-3.222;2022-12-18T12:13:32;2;2;
70915;PMS5003;58557;50.982;-3.222;2022-12-18T12:15:58;1;1;
70915;PMS5003;58557;50.982;-3.222;2022-12-18T12:18:23;2;2;
70915;PMS5003;58557;50.982;-3.222;2022-12-18T12:20:49;4;4;
70915;PMS5003;58557;50.982;-3.222;2022-12-18T12:23:13;1;1;
70915;PMS5003;58557;50.982;-3.222;2022-12-18T12:25:40;3;3;
70915;PMS5003;58557;50.982;-3.222;2022-12-18T12:28:07;2;2;
70915;PMS5003;58557;50.982;-3.222;2022-12-18T12:30:30;1;1;
70915;PMS5003;58557;50.982;-3.222;2022-12-18T12:33:00;1;1;
70915;PMS5003;58557;50.982;-3.222;2022-12-18T12:35:22;3;3;
70915;PMS5003;58557;50.982;-3.222;2022-12-18T12:37:47;1;1;
70915;PMS5003;58557;50.982;-3.222;2022-12-18T12:40:11;2;2;
70915;PMS5003;58557;50.982;-3.222;2022-12-18T12:42:38;3;2;
70915;PMS5003;58557;50.982;-3.222;2022-12-18T12:45:02;2;2;
70915;PMS5003;58557;50.982;-3.222;2022-12-18T12:47:27;4;3;
70915;PMS5003;58557;50.982;-3.222;2022-12-18T12:49:52;1;1;
70915;PMS5003;58557;50.982;-3.222;2022-12-18T12:52:20;3;3;
70915;PMS5003;58557;50.982;-3.222;2022-12-18T12:54:43;2;2;
70915;PMS5003;58557;50.982;-3.222;2022-12-18T12:57:10;1;1;
70915;PMS5003;58557;50.982;-3.222;2022-12-18T12:59:36;2;2;
70915;PMS5003;58557;50.982;-3.222;2022-12-18T13:02:02;2;1;
70915;PMS5003;58557;50.982;-3.222;2022-12-18T13:04:27;4;2;
70915;PMS5003;58557;50.982;-3.222;2022-12-18T13:06:53;1;1;
70915;PMS5003;58557;50.982;-3.222;2022-12-18T13:09:16;3;2;
70915;PMS5003;58557;50.982;-3.222;2022-12-18T13:11:42;1;1;
70915;PMS5003;58557;50.982;-3.222;2022-12-18T13:14:12;3;1;
70915;PMS5003;58557;50.982;-3.222;2022-12-18T13:16:34;4;4;
70915;PMS5003;58557;50.982;-3.222;2022-12-18T13:19:00;3;2;
70915;PMS5003;58557;50.982;-3.222;2022-12-18T13:21:27;2;2;
70915;PMS5003;58557;50.982;-3.222;2022-12-18T13:23:51;5;4;
70915;PMS5003;58557;50.982;-3.222;2022-12-18T13:28:51;5;5;
70915;PMS5003;58557;50.982;-3.222;2022-12-18T13:31:08;5;4;
70915;PMS5003;58557;50.982;-3.222;2022-12-18T13:36:01;5;4;
70915;PMS5003;58557;50.982;-3.222;2022-12-18T13:38:32;4;3;
70915;PMS5003;58557;50.982;-3.222;2022-12-18T13:40:55;3;3;
70915;PMS5003;58557;50.982;-3.222;2022-12-18T13:45:44;3;3;
70915;PMS5003;58557;50.982;-3.222;2022-12-18T13:48:14;4;3;
70915;PMS5003;58557;50.982;-3.222;2022-12-18T13:50:34;3;3;
70915;PMS5003;58557;50.982;-3.222;2022-12-18T13:52:59;8;8;
70915;PMS5003;58557;50.982;-3.222;2022-12-18T13:55:25;3;2;
70915;PMS5003;58557;50.982;-3.222;2022-12-18T13:57:51;4;4;
70915;PMS5003;58557;50.982;-3.222;2022-12-18T14:02:44;4;3;
70915;PMS5003;58557;50.982;-3.222;2022-12-18T14:07:36;2;2;
70915;PMS5003;58557;50.982;-3.222;2022-12-18T14:09:59;3;3;
70915;PMS5003;58557;50.982;-3.222;2022-12-18T14:12:26;3;3;
70915;PMS5003;58557;50.982;-3.222;2022-12-18T14:14:51;5;3;
70915;PMS5003;58557;50.982;-3.222;2022-12-18T14:17:16;7;4;
70915;PMS5003;58557;50.982;-3.222;2022-12-18T14:19:43;7;4;
70915;PMS5003;58557;50.982;-3.222;2022-12-18T14:22:11;5;3;
70915;PMS5003;58557;50.982;-3.222;2022-12-18T14:24:34;3;1;
70915;PMS5003;58557;50.982;-3.222;2022-12-18T14:29:26;7;7;
70915;PMS5003;58557;50.982;-3.222;2022-12-18T14:34:16;4;2;
70915;PMS5003;58557;50.982;-3.222;2022-12-18T14:39:13;2;2;
70915;PMS5003;58557;50.982;-3.222;2022-12-18T14:41:33;3;3;
70915;PMS5003;58557;50.982;-3.222;2022-12-18T14:44:04;4;4;
70915;PMS5003;58557;50.982;-3.222;2022-12-18T14:46:27;8;5;
70915;PMS5003;58557;50.982;-3.222;2022-12-18T14:48:50;6;4;
70915;PMS5003;58557;50.982;-3.222;2022-12-18T14:51:17;3;3;
70915;PMS5003;58557;50.982;-3.222;2022-12-18T14:53:42;5;4;
70915;PMS5003;58557;50.982;-3.222;2022-12-18T14:56:14;5;3;
70915;PMS5003;58557;50.982;-3.222;2022-12-18T14:58:33;3;3;
70915;PMS5003;58557;50.982;-3.222;2022-12-18T15:00:59;3;3;
70915;PMS5003;58557;50.982;-3.222;2022-12-18T15:03:25;3;2;
70915;PMS5003;58557;50.982;-3.222;2022-12-18T15:05:51;3;3;
70915;PMS5003;58557;50.982;-3.222;2022-12-18T15:10:46;4;3;
70915;PMS5003;58557;50.982;-3.222;2022-12-18T15:13:09;1;1;
70915;PMS5003;58557;50.982;-3.222;2022-12-18T15:18:00;2;2;
70915;PMS5003;58557;50.982;-3.222;2022-12-18T15:20:26;2;2;
70915;PMS5003;58557;50.982;-3.222;2022-12-18T15:22:51;6;2;
70915;PMS5003;58557;50.982;-3.222;2022-12-18T15:25:22;1;1;
70915;PMS5003;58557;50.982;-3.222;2022-12-18T15:27:44;3;1;
70915;PMS5003;58557;50.982;-3.222;2022-12-18T15:30:16;2;2;
70915;PMS5003;58557;50.982;-3.222;2022-12-18T15:32:34;2;2;
70915;PMS5003;58557;50.982;-3.222;2022-12-18T15:35:07;1;1;
70915;PMS5003;58557;50.982;-3.222;2022-12-18T15:37:26;1;1;
70915;PMS5003;58557;50.982;-3.222;2022-12-18T15:39:52;1;1;
70915;PMS5003;58557;50.982;-3.222;2022-12-18T15:42:17;3;3;
70915;PMS5003;58557;50.982;-3.222;2022-12-18T15:44:43;6;6;
70915;PMS5003;58557;50.982;-3.222;2022-12-18T15:47:10;4;2;
70915;PMS5003;58557;50.982;-3.222;2022-12-18T15:49:34;4;2;
70915;PMS5003;58557;50.982;-3.222;2022-12-18T15:52:01;3;3;
70915;PMS5003;58557;50.982;-3.222;2022-12-18T15:54:26;2;2;
70915;PMS5003;58557;50.982;-3.222;2022-12-18T15:56:51;9;9;
70915;PMS5003;58557;50.982;-3.222;2022-12-18T15:59:17;4;4;
70915;PMS5003;58557;50.982;-3.222;2022-12-18T16:01:43;2;2;
70915;PMS5003;58557;50.982;-3.222;2022-12-18T16:04:08;3;2;
70915;PMS5003;58557;50.982;-3.222;2022-12-18T16:06:33;3;3;
70915;PMS5003;58557;50.982;-3.222;2022-12-18T16:08:59;3;3;
70915;PMS5003;58557;50.982;-3.222;2022-12-18T16:11:26;5;5;
70915;PMS5003;58557;50.982;-3.222;2022-12-18T16:13:50;6;3;
70915;PMS5003;58557;50.982;-3.222;2022-12-18T16:16:16;2;2;
70915;PMS5003;58557;50.982;-3.222;2022-12-18T16:18:42;1;1;
70915;PMS5003;58557;50.982;-3.222;2022-12-18T16:21:07;5;3;
70915;PMS5003;58557;50.982;-3.222;2022-12-18T16:23:33;3;3;
70915;PMS5003;58557;50.982;-3.222;2022-12-18T16:25:59;5;5;
70915;PMS5003;58557;50.982;-3.222;2022-12-18T16:28:25;5;4;
70915;PMS5003;58557;50.982;-3.222;2022-12-18T16:30:50;4;4;